sensor_id;sensor_type;location;lat;lon;timestamp;P1;durP1;ratioP1;P2;durP2;ratioP2
17604;SDS011;8921;50.964;6.800;2022-10-31T00:01:14;15.90;;;7.23;;
17604;SDS011;8921;50.964;6.800;2022-10-31T00:03:44;13.07;;;6.27;;
17604;SDS011;8921;50.964;6.800;2022-10-31T00:06:12;19.10;;;8.00;;
17604;SDS011;8921;50.964;6.800;2022-10-31T00:08:40;11.23;;;5.90;;
17604;SDS011;8921;50.964;6.800;2022-10-31T00:11:09;12.47;;;6.60;;
17604;SDS011;8921;50.964;6.800;2022-10-31T00:13:37;14.63;;;6.83;;
17604;SDS011;8921;50.964;6.800;2022-10-31T00:16:12;14.37;;;7.37;;
17604;SDS011;8921;50.964;6.800;2022-10-31T00:18:33;15.07;;;7.80;;
17604;SDS011;8921;50.964;6.800;2022-10-31T00:21:02;22.00;;;7.60;;
17604;SDS011;8921;50.964;6.800;2022-10-31T00:23:30;17.20;;;6.97;;
17604;SDS011;8921;50.964;6.800;2022-10-31T00:26:02;16.00;;;6.87;;
17604;SDS011;8921;50.964;6.800;2022-10-31T00:28:30;13.10;;;7.70;;
17604;SDS011;8921;50.964;6.800;2022-10-31T00:31:05;10.20;;;5.87;;
17604;SDS011;8921;50.964;6.800;2022-10-31T00:33:33;12.83;;;7.20;;
17604;SDS011;8921;50.964;6.800;2022-10-31T00:36:00;19.13;;;7.57;;
17604;SDS011;8921;50.964;6.800;2022-10-31T00:38:29;14.30;;;7.33;;
17604;SDS011;8921;50.964;6.800;2022-10-31T00:40:57;15.83;;;7.10;;
17604;SDS011;8921;50.964;6.800;2022-10-31T00:43:25;18.63;;;7.60;;
17604;SDS011;8921;50.964;6.800;2022-10-31T00:45:54;14.47;;;7.10;;
17604;SDS011;8921;50.964;6.800;2022-10-31T00:48:22;14.00;;;7.60;;
17604;SDS011;8921;50.964;6.800;2022-10-31T00:50:50;19.40;;;7.10;;
17604;SDS011;8921;50.964;6.800;2022-10-31T00:53:18;14.80;;;6.80;;
17604;SDS011;8921;50.964;6.800;2022-10-31T00:55:47;21.70;;;7.43;;
17604;SDS011;8921;50.964;6.800;2022-10-31T00:58:15;13.93;;;6.63;;
17604;SDS011;8921;50.964;6.800;2022-10-31T01:00:43;17.70;;;7.30;;
17604;SDS011;8921;50.964;6.800;2022-10-31T01:03:12;16.53;;;7.97;;
17604;SDS011;8921;50.964;6.800;2022-10-31T01:05:40;15.40;;;7.03;;
17604;SDS011;8921;50.964;6.800;2022-10-31T01:08:08;17.87;;;7.70;;
17604;SDS011;8921;50.964;6.800;2022-10-31T01:10:37;13.90;;;6.83;;
17604;SDS011;8921;50.964;6.800;2022-10-31T01:13:05;20.27;;;8.00;;
17604;SDS011;8921;50.964;6.800;2022-10-31T01:15:33;21.90;;;7.83;;
17604;SDS011;8921;50.964;6.800;2022-10-31T01:18:01;12.17;;;7.80;;
17604;SDS011;8921;50.964;6.800;2022-10-31T01:20:30;14.80;;;8.23;;
17604;SDS011;8921;50.964;6.800;2022-10-31T01:22:58;18.00;;;6.90;;
17604;SDS011;8921;50.964;6.800;2022-10-31T01:25:26;14.00;;;6.37;;
17604;SDS011;8921;50.964;6.800;2022-10-31T01:27:55;14.30;;;7.17;;
17604;SDS011;8921;50.964;6.800;2022-10-31T01:30:23;13.27;;;6.50;;
17604;SDS011;8921;50.964;6.800;2022-10-31T01:32:51;15.70;;;7.77;;
17604;SDS011;8921;50.964;6.800;2022-10-31T01:35:20;18.03;;;6.67;;
17604;SDS011;8921;50.964;6.800;2022-10-31T01:37:48;15.70;;;6.80;;
17604;SDS011;8921;50.964;6.800;2022-10-31T01:40:16;14.50;;;7.53;;
17604;SDS011;8921;50.964;6.800;2022-10-31T01:42:45;17.73;;;7.10;;
17604;SDS011;8921;50.964;6.800;2022-10-31T01:45:13;12.60;;;7.17;;
17604;SDS011;8921;50.964;6.800;2022-10-31T01:47:44;17.33;;;8.37;;
17604;SDS011;8921;50.964;6.800;2022-10-31T01:50:13;12.37;;;6.47;;
17604;SDS011;8921;50.964;6.800;2022-10-31T01:52:44;10.50;;;7.00;;
17604;SDS011;8921;50.964;6.800;2022-10-31T01:55:10;16.20;;;7.80;;
17604;SDS011;8921;50.964;6.800;2022-10-31T01:57:37;13.80;;;8.30;;
17604;SDS011;8921;50.964;6.800;2022-10-31T02:00:06;14.67;;;8.10;;
17604;SDS011;8921;50.964;6.800;2022-10-31T02:02:34;17.77;;;8.40;;
17604;SDS011;8921;50.964;6.800;2022-10-31T02:05:04;12.33;;;6.93;;
17604;SDS011;8921;50.964;6.800;2022-10-31T02:07:33;15.60;;;7.27;;
17604;SDS011;8921;50.964;6.800;2022-10-31T02:10:00;13.20;;;7.50;;
17604;SDS011;8921;50.964;6.800;2022-10-31T02:12:28;13.23;;;7.53;;
17604;SDS011;8921;50.964;6.800;2022-10-31T02:14:56;13.83;;;7.80;;
17604;SDS011;8921;50.964;6.800;2022-10-31T02:17:24;21.73;;;7.60;;
17604;SDS011;8921;50.964;6.800;2022-10-31T02:33:52;17.30;;;7.67;;
17604;SDS011;8921;50.964;6.800;2022-10-31T02:39:01;14.57;;;8.83;;
17604;SDS011;8921;50.964;6.800;2022-10-31T02:41:40;17.30;;;8.33;;
17604;SDS011;8921;50.964;6.800;2022-10-31T02:44:09;15.57;;;7.40;;
17604;SDS011;8921;50.964;6.800;2022-10-31T02:46:44;15.47;;;8.40;;
17604;SDS011;8921;50.964;6.800;2022-10-31T02:52:00;14.13;;;7.43;;
17604;SDS011;8921;50.964;6.800;2022-10-31T02:54:28;15.37;;;6.73;;
17604;SDS011;8921;50.964;6.800;2022-10-31T02:57:04;16.77;;;8.10;;
17604;SDS011;8921;50.964;6.800;2022-10-31T02:59:31;14.07;;;7.90;;
17604;SDS011;8921;50.964;6.800;2022-10-31T03:02:03;13.73;;;7.53;;
17604;SDS011;8921;50.964;6.800;2022-10-31T03:04:40;13.43;;;7.47;;
17604;SDS011;8921;50.964;6.800;2022-10-31T03:12:29;11.90;;;7.83;;
17604;SDS011;8921;50.964;6.800;2022-10-31T03:15:01;14.33;;;8.27;;
17604;SDS011;8921;50.964;6.800;2022-10-31T03:17:36;25.63;;;9.10;;
17604;SDS011;8921;50.964;6.800;2022-10-31T03:20:02;18.90;;;9.13;;
17604;SDS011;8921;50.964;6.800;2022-10-31T03:22:31;14.40;;;7.53;;
17604;SDS011;8921;50.964;6.800;2022-10-31T03:25:00;14.27;;;7.13;;
17604;SDS011;8921;50.964;6.800;2022-10-31T03:27:28;14.50;;;8.20;;
17604;SDS011;8921;50.964;6.800;2022-10-31T03:29:56;14.13;;;8.47;;
17604;SDS011;8921;50.964;6.800;2022-10-31T03:32:25;16.20;;;9.13;;
17604;SDS011;8921;50.964;6.800;2022-10-31T03:34:53;13.23;;;8.13;;
17604;SDS011;8921;50.964;6.800;2022-10-31T03:37:20;14.80;;;8.33;;
17604;SDS011;8921;50.964;6.800;2022-10-31T03:39:49;21.87;;;8.70;;
17604;SDS011;8921;50.964;6.800;2022-10-31T03:42:18;22.20;;;7.70;;
17604;SDS011;8921;50.964;6.800;2022-10-31T03:44:46;25.63;;;8.27;;
17604;SDS011;8921;50.964;6.800;2022-10-31T03:47:14;14.23;;;7.50;;
17604;SDS011;8921;50.964;6.800;2022-10-31T03:49:42;14.73;;;9.67;;
17604;SDS011;8921;50.964;6.800;2022-10-31T03:52:23;15.57;;;7.23;;
17604;SDS011;8921;50.964;6.800;2022-10-31T03:54:58;13.97;;;7.63;;
17604;SDS011;8921;50.964;6.800;2022-10-31T03:57:33;17.03;;;9.03;;
17604;SDS011;8921;50.964;6.800;2022-10-31T04:00:06;17.03;;;8.50;;
17604;SDS011;8921;50.964;6.800;2022-10-31T04:02:34;16.07;;;8.00;;
17604;SDS011;8921;50.964;6.800;2022-10-31T04:05:02;12.73;;;8.30;;
17604;SDS011;8921;50.964;6.800;2022-10-31T04:07:32;17.63;;;9.00;;
17604;SDS011;8921;50.964;6.800;2022-10-31T04:09:59;15.90;;;9.07;;
17604;SDS011;8921;50.964;6.800;2022-10-31T04:12:27;19.00;;;9.50;;
17604;SDS011;8921;50.964;6.800;2022-10-31T04:14:55;20.93;;;10.70;;
17604;SDS011;8921;50.964;6.800;2022-10-31T04:17:24;21.10;;;10.20;;
17604;SDS011;8921;50.964;6.800;2022-10-31T04:19:52;16.73;;;9.70;;
17604;SDS011;8921;50.964;6.800;2022-10-31T04:22:20;40.47;;;18.57;;
17604;SDS011;8921;50.964;6.800;2022-10-31T04:24:48;21.57;;;11.93;;
17604;SDS011;8921;50.964;6.800;2022-10-31T04:27:17;15.53;;;8.23;;
17604;SDS011;8921;50.964;6.800;2022-10-31T04:29:45;18.63;;;8.33;;
17604;SDS011;8921;50.964;6.800;2022-10-31T04:32:13;22.07;;;8.70;;
17604;SDS011;8921;50.964;6.800;2022-10-31T04:34:42;14.13;;;7.87;;
17604;SDS011;8921;50.964;6.800;2022-10-31T04:37:10;18.00;;;9.93;;
17604;SDS011;8921;50.964;6.800;2022-10-31T04:39:38;15.03;;;8.13;;
17604;SDS011;8921;50.964;6.800;2022-10-31T04:42:07;16.90;;;7.77;;
17604;SDS011;8921;50.964;6.800;2022-10-31T04:44:35;15.77;;;8.27;;
17604;SDS011;8921;50.964;6.800;2022-10-31T04:47:03;15.23;;;9.03;;
17604;SDS011;8921;50.964;6.800;2022-10-31T04:49:32;14.63;;;7.87;;
17604;SDS011;8921;50.964;6.800;2022-10-31T04:52:00;15.73;;;7.13;;
17604;SDS011;8921;50.964;6.800;2022-10-31T04:54:28;11.30;;;7.20;;
17604;SDS011;8921;50.964;6.800;2022-10-31T04:56:57;14.77;;;8.10;;
17604;SDS011;8921;50.964;6.800;2022-10-31T04:59:25;14.20;;;6.80;;
17604;SDS011;8921;50.964;6.800;2022-10-31T05:01:54;13.80;;;8.07;;
17604;SDS011;8921;50.964;6.800;2022-10-31T05:04:22;17.43;;;8.47;;
17604;SDS011;8921;50.964;6.800;2022-10-31T05:06:50;13.63;;;7.43;;
17604;SDS011;8921;50.964;6.800;2022-10-31T05:09:19;14.57;;;7.70;;
17604;SDS011;8921;50.964;6.800;2022-10-31T05:11:47;16.77;;;8.43;;
17604;SDS011;8921;50.964;6.800;2022-10-31T05:14:15;14.10;;;9.00;;
17604;SDS011;8921;50.964;6.800;2022-10-31T05:16:44;18.90;;;9.70;;
17604;SDS011;8921;50.964;6.800;2022-10-31T05:19:12;14.53;;;8.27;;
17604;SDS011;8921;50.964;6.800;2022-10-31T05:21:40;18.63;;;10.37;;
17604;SDS011;8921;50.964;6.800;2022-10-31T05:24:09;17.63;;;9.30;;
17604;SDS011;8921;50.964;6.800;2022-10-31T05:26:37;17.50;;;9.80;;
17604;SDS011;8921;50.964;6.800;2022-10-31T05:29:05;18.03;;;9.40;;
17604;SDS011;8921;50.964;6.800;2022-10-31T05:31:34;15.43;;;7.67;;
17604;SDS011;8921;50.964;6.800;2022-10-31T05:34:02;19.27;;;8.40;;
17604;SDS011;8921;50.964;6.800;2022-10-31T05:36:30;17.13;;;7.13;;
17604;SDS011;8921;50.964;6.800;2022-10-31T05:38:59;16.10;;;7.40;;
17604;SDS011;8921;50.964;6.800;2022-10-31T05:41:27;18.30;;;8.73;;
17604;SDS011;8921;50.964;6.800;2022-10-31T05:43:55;16.30;;;7.70;;
17604;SDS011;8921;50.964;6.800;2022-10-31T05:46:24;19.00;;;8.53;;
17604;SDS011;8921;50.964;6.800;2022-10-31T05:48:52;16.93;;;7.77;;
17604;SDS011;8921;50.964;6.800;2022-10-31T05:51:20;24.23;;;12.57;;
17604;SDS011;8921;50.964;6.800;2022-10-31T05:53:49;20.10;;;12.37;;
17604;SDS011;8921;50.964;6.800;2022-10-31T05:56:17;13.97;;;8.50;;
17604;SDS011;8921;50.964;6.800;2022-10-31T05:58:45;14.80;;;8.17;;
17604;SDS011;8921;50.964;6.800;2022-10-31T06:01:13;14.10;;;8.30;;
17604;SDS011;8921;50.964;6.800;2022-10-31T06:03:42;13.07;;;7.30;;
17604;SDS011;8921;50.964;6.800;2022-10-31T06:06:10;13.63;;;7.50;;
17604;SDS011;8921;50.964;6.800;2022-10-31T06:08:39;15.57;;;9.03;;
17604;SDS011;8921;50.964;6.800;2022-10-31T06:11:07;17.53;;;8.23;;
17604;SDS011;8921;50.964;6.800;2022-10-31T06:13:35;19.27;;;8.83;;
17604;SDS011;8921;50.964;6.800;2022-10-31T06:16:03;18.63;;;9.00;;
17604;SDS011;8921;50.964;6.800;2022-10-31T06:18:32;15.60;;;8.60;;
17604;SDS011;8921;50.964;6.800;2022-10-31T06:21:00;16.03;;;8.27;;
17604;SDS011;8921;50.964;6.800;2022-10-31T06:23:28;13.70;;;7.73;;
17604;SDS011;8921;50.964;6.800;2022-10-31T06:25:57;15.90;;;7.80;;
17604;SDS011;8921;50.964;6.800;2022-10-31T06:28:25;15.63;;;8.43;;
17604;SDS011;8921;50.964;6.800;2022-10-31T06:30:53;13.90;;;8.50;;
17604;SDS011;8921;50.964;6.800;2022-10-31T06:33:22;15.77;;;7.90;;
17604;SDS011;8921;50.964;6.800;2022-10-31T06:35:50;18.70;;;8.40;;
17604;SDS011;8921;50.964;6.800;2022-10-31T06:38:18;15.70;;;8.23;;
17604;SDS011;8921;50.964;6.800;2022-10-31T06:43:31;21.53;;;11.20;;
17604;SDS011;8921;50.964;6.800;2022-10-31T06:46:03;19.20;;;8.40;;
17604;SDS011;8921;50.964;6.800;2022-10-31T06:48:31;12.67;;;8.17;;
17604;SDS011;8921;50.964;6.800;2022-10-31T06:51:00;15.70;;;9.47;;
17604;SDS011;8921;50.964;6.800;2022-10-31T06:53:28;14.00;;;7.97;;
17604;SDS011;8921;50.964;6.800;2022-10-31T06:55:56;17.00;;;9.10;;
17604;SDS011;8921;50.964;6.800;2022-10-31T06:58:24;19.73;;;9.67;;
17604;SDS011;8921;50.964;6.800;2022-10-31T07:00:53;15.47;;;8.30;;
17604;SDS011;8921;50.964;6.800;2022-10-31T07:03:21;19.40;;;8.73;;
17604;SDS011;8921;50.964;6.800;2022-10-31T07:05:49;18.97;;;9.77;;
17604;SDS011;8921;50.964;6.800;2022-10-31T07:08:18;17.20;;;8.47;;
17604;SDS011;8921;50.964;6.800;2022-10-31T07:10:50;19.70;;;8.20;;
17604;SDS011;8921;50.964;6.800;2022-10-31T07:13:14;16.10;;;7.70;;
17604;SDS011;8921;50.964;6.800;2022-10-31T07:15:43;14.37;;;8.60;;
17604;SDS011;8921;50.964;6.800;2022-10-31T07:18:11;15.73;;;7.93;;
17604;SDS011;8921;50.964;6.800;2022-10-31T07:20:39;18.93;;;8.70;;
17604;SDS011;8921;50.964;6.800;2022-10-31T07:23:09;15.67;;;7.60;;
17604;SDS011;8921;50.964;6.800;2022-10-31T07:25:36;13.70;;;7.93;;
17604;SDS011;8921;50.964;6.800;2022-10-31T07:28:04;15.70;;;8.20;;
17604;SDS011;8921;50.964;6.800;2022-10-31T07:30:33;18.63;;;9.73;;
17604;SDS011;8921;50.964;6.800;2022-10-31T07:33:01;16.33;;;7.90;;
17604;SDS011;8921;50.964;6.800;2022-10-31T07:35:29;20.83;;;8.87;;
17604;SDS011;8921;50.964;6.800;2022-10-31T07:37:57;13.87;;;8.80;;
17604;SDS011;8921;50.964;6.800;2022-10-31T07:40:26;12.67;;;8.43;;
17604;SDS011;8921;50.964;6.800;2022-10-31T07:42:54;16.60;;;10.10;;
17604;SDS011;8921;50.964;6.800;2022-10-31T07:45:22;18.20;;;8.60;;
17604;SDS011;8921;50.964;6.800;2022-10-31T07:47:51;14.03;;;8.73;;
17604;SDS011;8921;50.964;6.800;2022-10-31T07:50:20;14.93;;;9.50;;
17604;SDS011;8921;50.964;6.800;2022-10-31T07:53:08;15.20;;;9.33;;
17604;SDS011;8921;50.964;6.800;2022-10-31T07:55:39;18.60;;;9.40;;
17604;SDS011;8921;50.964;6.800;2022-10-31T07:58:09;18.10;;;9.00;;
17604;SDS011;8921;50.964;6.800;2022-10-31T08:00:37;17.80;;;8.33;;
17604;SDS011;8921;50.964;6.800;2022-10-31T08:03:05;17.80;;;8.17;;
17604;SDS011;8921;50.964;6.800;2022-10-31T08:05:33;15.83;;;8.67;;
17604;SDS011;8921;50.964;6.800;2022-10-31T08:08:01;16.40;;;8.57;;
17604;SDS011;8921;50.964;6.800;2022-10-31T08:10:29;14.90;;;8.20;;
17604;SDS011;8921;50.964;6.800;2022-10-31T08:12:58;15.50;;;8.37;;
17604;SDS011;8921;50.964;6.800;2022-10-31T08:15:26;13.53;;;7.80;;
17604;SDS011;8921;50.964;6.800;2022-10-31T08:17:54;20.20;;;8.77;;
17604;SDS011;8921;50.964;6.800;2022-10-31T08:20:22;17.23;;;9.17;;
17604;SDS011;8921;50.964;6.800;2022-10-31T08:22:54;14.93;;;7.23;;
17604;SDS011;8921;50.964;6.800;2022-10-31T08:25:25;14.53;;;8.40;;
17604;SDS011;8921;50.964;6.800;2022-10-31T08:27:53;23.60;;;8.90;;
17604;SDS011;8921;50.964;6.800;2022-10-31T08:30:22;12.47;;;8.07;;
17604;SDS011;8921;50.964;6.800;2022-10-31T08:33:05;17.90;;;8.37;;
17604;SDS011;8921;50.964;6.800;2022-10-31T08:35:30;17.80;;;8.50;;
17604;SDS011;8921;50.964;6.800;2022-10-31T08:37:58;17.40;;;8.23;;
17604;SDS011;8921;50.964;6.800;2022-10-31T08:40:27;17.43;;;8.97;;
17604;SDS011;8921;50.964;6.800;2022-10-31T08:42:55;21.73;;;14.87;;
17604;SDS011;8921;50.964;6.800;2022-10-31T08:45:23;22.10;;;9.23;;
17604;SDS011;8921;50.964;6.800;2022-10-31T08:47:51;14.40;;;8.63;;
17604;SDS011;8921;50.964;6.800;2022-10-31T08:50:19;22.93;;;9.57;;
17604;SDS011;8921;50.964;6.800;2022-10-31T08:52:48;17.33;;;9.60;;
17604;SDS011;8921;50.964;6.800;2022-10-31T08:55:16;15.43;;;8.90;;
17604;SDS011;8921;50.964;6.800;2022-10-31T08:57:44;17.13;;;8.60;;
17604;SDS011;8921;50.964;6.800;2022-10-31T09:00:13;16.40;;;9.33;;
17604;SDS011;8921;50.964;6.800;2022-10-31T09:02:41;21.00;;;9.73;;
17604;SDS011;8921;50.964;6.800;2022-10-31T09:05:09;15.73;;;8.70;;
17604;SDS011;8921;50.964;6.800;2022-10-31T09:07:38;17.20;;;10.43;;
17604;SDS011;8921;50.964;6.800;2022-10-31T09:10:06;16.73;;;11.20;;
17604;SDS011;8921;50.964;6.800;2022-10-31T09:12:34;12.93;;;8.80;;
17604;SDS011;8921;50.964;6.800;2022-10-31T09:15:03;15.77;;;9.13;;
17604;SDS011;8921;50.964;6.800;2022-10-31T09:17:31;15.57;;;7.60;;
17604;SDS011;8921;50.964;6.800;2022-10-31T09:19:59;13.63;;;8.30;;
17604;SDS011;8921;50.964;6.800;2022-10-31T09:22:28;16.33;;;7.93;;
17604;SDS011;8921;50.964;6.800;2022-10-31T09:24:56;20.27;;;7.90;;
17604;SDS011;8921;50.964;6.800;2022-10-31T09:27:24;16.30;;;7.97;;
17604;SDS011;8921;50.964;6.800;2022-10-31T09:29:53;13.43;;;7.07;;
17604;SDS011;8921;50.964;6.800;2022-10-31T09:32:21;13.80;;;7.83;;
17604;SDS011;8921;50.964;6.800;2022-10-31T09:34:49;12.40;;;7.50;;
17604;SDS011;8921;50.964;6.800;2022-10-31T09:37:18;15.40;;;8.20;;
17604;SDS011;8921;50.964;6.800;2022-10-31T09:39:46;20.10;;;7.60;;
17604;SDS011;8921;50.964;6.800;2022-10-31T09:44:54;12.87;;;8.10;;
17604;SDS011;8921;50.964;6.800;2022-10-31T09:47:23;12.53;;;7.97;;
17604;SDS011;8921;50.964;6.800;2022-10-31T09:50:05;13.20;;;6.87;;
17604;SDS011;8921;50.964;6.800;2022-10-31T09:52:32;15.47;;;7.67;;
17604;SDS011;8921;50.964;6.800;2022-10-31T09:55:04;14.83;;;8.53;;
17604;SDS011;8921;50.964;6.800;2022-10-31T09:57:34;15.30;;;7.20;;
17604;SDS011;8921;50.964;6.800;2022-10-31T10:00:05;11.40;;;7.20;;
17604;SDS011;8921;50.964;6.800;2022-10-31T10:02:35;17.20;;;8.30;;
17604;SDS011;8921;50.964;6.800;2022-10-31T10:05:10;13.20;;;6.73;;
17604;SDS011;8921;50.964;6.800;2022-10-31T10:24:17;15.13;;;8.53;;
17604;SDS011;8921;50.964;6.800;2022-10-31T10:26:51;13.37;;;7.20;;
17604;SDS011;8921;50.964;6.800;2022-10-31T10:32:01;13.17;;;6.07;;
17604;SDS011;8921;50.964;6.800;2022-10-31T10:34:41;15.63;;;7.03;;
17604;SDS011;8921;50.964;6.800;2022-10-31T10:37:11;18.40;;;8.57;;
17604;SDS011;8921;50.964;6.800;2022-10-31T10:39:47;15.93;;;6.50;;
17604;SDS011;8921;50.964;6.800;2022-10-31T10:42:15;14.80;;;7.40;;
17604;SDS011;8921;50.964;6.800;2022-10-31T10:45:09;12.57;;;7.80;;
17604;SDS011;8921;50.964;6.800;2022-10-31T10:47:53;16.43;;;6.30;;
17604;SDS011;8921;50.964;6.800;2022-10-31T10:50:20;11.97;;;5.87;;
17604;SDS011;8921;50.964;6.800;2022-10-31T10:58:06;16.20;;;6.70;;
17604;SDS011;8921;50.964;6.800;2022-10-31T11:00:37;12.70;;;6.47;;
17604;SDS011;8921;50.964;6.800;2022-10-31T11:03:03;12.47;;;6.80;;
17604;SDS011;8921;50.964;6.800;2022-10-31T11:05:39;12.63;;;5.93;;
17604;SDS011;8921;50.964;6.800;2022-10-31T11:08:25;11.53;;;5.80;;
17604;SDS011;8921;50.964;6.800;2022-10-31T11:11:06;12.33;;;5.73;;
17604;SDS011;8921;50.964;6.800;2022-10-31T11:13:39;13.67;;;7.90;;
17604;SDS011;8921;50.964;6.800;2022-10-31T11:16:08;12.90;;;6.87;;
17604;SDS011;8921;50.964;6.800;2022-10-31T11:18:39;13.50;;;5.70;;
17604;SDS011;8921;50.964;6.800;2022-10-31T11:21:17;14.20;;;6.80;;
17604;SDS011;8921;50.964;6.800;2022-10-31T11:23:34;11.17;;;6.10;;
17604;SDS011;8921;50.964;6.800;2022-10-31T11:26:03;11.73;;;5.53;;
17604;SDS011;8921;50.964;6.800;2022-10-31T11:28:32;10.47;;;5.57;;
17604;SDS011;8921;50.964;6.800;2022-10-31T11:31:00;17.93;;;6.27;;
17604;SDS011;8921;50.964;6.800;2022-10-31T11:33:35;15.20;;;6.57;;
17604;SDS011;8921;50.964;6.800;2022-10-31T11:36:03;13.07;;;6.20;;
17604;SDS011;8921;50.964;6.800;2022-10-31T11:38:33;13.10;;;5.40;;
17604;SDS011;8921;50.964;6.800;2022-10-31T11:41:10;13.83;;;5.93;;
17604;SDS011;8921;50.964;6.800;2022-10-31T11:43:36;14.07;;;5.97;;
17604;SDS011;8921;50.964;6.800;2022-10-31T11:46:08;12.50;;;5.73;;
17604;SDS011;8921;50.964;6.800;2022-10-31T11:48:35;13.00;;;5.63;;
17604;SDS011;8921;50.964;6.800;2022-10-31T11:51:04;13.13;;;5.40;;
17604;SDS011;8921;50.964;6.800;2022-10-31T11:53:33;13.10;;;5.10;;
17604;SDS011;8921;50.964;6.800;2022-10-31T11:56:13;11.80;;;5.53;;
17604;SDS011;8921;50.964;6.800;2022-10-31T11:58:41;11.87;;;6.60;;
17604;SDS011;8921;50.964;6.800;2022-10-31T12:01:25;12.80;;;5.97;;
17604;SDS011;8921;50.964;6.800;2022-10-31T12:06:37;12.60;;;6.50;;
17604;SDS011;8921;50.964;6.800;2022-10-31T12:14:30;18.80;;;5.57;;
17604;SDS011;8921;50.964;6.800;2022-10-31T12:19:58;12.47;;;5.90;;
17604;SDS011;8921;50.964;6.800;2022-10-31T12:25:07;14.40;;;6.17;;
17604;SDS011;8921;50.964;6.800;2022-10-31T12:35:43;9.17;;;5.40;;
17604;SDS011;8921;50.964;6.800;2022-10-31T12:41:22;16.20;;;5.47;;
17604;SDS011;8921;50.964;6.800;2022-10-31T12:46:40;14.70;;;5.80;;
17604;SDS011;8921;50.964;6.800;2022-10-31T12:54:34;10.20;;;5.00;;
17604;SDS011;8921;50.964;6.800;2022-10-31T12:57:16;15.70;;;6.00;;
17604;SDS011;8921;50.964;6.800;2022-10-31T12:59:55;10.50;;;4.90;;
17604;SDS011;8921;50.964;6.800;2022-10-31T13:02:23;17.57;;;5.87;;
17604;SDS011;8921;50.964;6.800;2022-10-31T13:04:51;14.97;;;5.67;;
17604;SDS011;8921;50.964;6.800;2022-10-31T13:12:35;8.40;;;4.60;;
17604;SDS011;8921;50.964;6.800;2022-10-31T13:15:15;8.43;;;4.13;;
17604;SDS011;8921;50.964;6.800;2022-10-31T13:17:48;8.80;;;5.50;;
17604;SDS011;8921;50.964;6.800;2022-10-31T13:22:51;13.30;;;4.47;;
17604;SDS011;8921;50.964;6.800;2022-10-31T13:25:25;9.93;;;4.93;;
17604;SDS011;8921;50.964;6.800;2022-10-31T13:30:21;10.17;;;4.63;;
17604;SDS011;8921;50.964;6.800;2022-10-31T13:35:47;12.57;;;4.37;;
17604;SDS011;8921;50.964;6.800;2022-10-31T13:49:01;12.40;;;4.00;;
17604;SDS011;8921;50.964;6.800;2022-10-31T13:51:30;18.23;;;4.40;;
17604;SDS011;8921;50.964;6.800;2022-10-31T13:53:59;11.97;;;4.60;;
17604;SDS011;8921;50.964;6.800;2022-10-31T13:56:30;12.70;;;6.23;;
17604;SDS011;8921;50.964;6.800;2022-10-31T13:59:01;11.40;;;4.90;;
17604;SDS011;8921;50.964;6.800;2022-10-31T14:01:28;12.17;;;4.90;;
17604;SDS011;8921;50.964;6.800;2022-10-31T14:03:58;13.00;;;5.03;;
17604;SDS011;8921;50.964;6.800;2022-10-31T14:06:34;13.53;;;5.07;;
17604;SDS011;8921;50.964;6.800;2022-10-31T14:09:02;12.63;;;5.50;;
17604;SDS011;8921;50.964;6.800;2022-10-31T14:11:30;11.93;;;6.10;;
17604;SDS011;8921;50.964;6.800;2022-10-31T14:13:58;13.87;;;5.60;;
17604;SDS011;8921;50.964;6.800;2022-10-31T14:16:27;20.40;;;6.13;;
17604;SDS011;8921;50.964;6.800;2022-10-31T14:21:40;12.17;;;4.43;;
17604;SDS011;8921;50.964;6.800;2022-10-31T14:23:58;15.03;;;4.03;;
17604;SDS011;8921;50.964;6.800;2022-10-31T14:29:00;12.03;;;4.90;;
17604;SDS011;8921;50.964;6.800;2022-10-31T14:34:00;17.47;;;4.33;;
17604;SDS011;8921;50.964;6.800;2022-10-31T14:36:31;10.10;;;5.70;;
17604;SDS011;8921;50.964;6.800;2022-10-31T14:44:42;11.87;;;5.50;;
17604;SDS011;8921;50.964;6.800;2022-10-31T14:47:21;12.60;;;4.93;;
17604;SDS011;8921;50.964;6.800;2022-10-31T14:50:04;13.67;;;4.97;;
17604;SDS011;8921;50.964;6.800;2022-10-31T14:52:31;11.90;;;4.70;;
17604;SDS011;8921;50.964;6.800;2022-10-31T14:54:59;11.60;;;4.30;;
17604;SDS011;8921;50.964;6.800;2022-10-31T14:57:31;10.30;;;4.97;;
17604;SDS011;8921;50.964;6.800;2022-10-31T15:00:00;13.27;;;5.00;;
17604;SDS011;8921;50.964;6.800;2022-10-31T15:02:28;13.00;;;4.47;;
17604;SDS011;8921;50.964;6.800;2022-10-31T15:04:55;11.80;;;4.70;;
17604;SDS011;8921;50.964;6.800;2022-10-31T15:07:24;11.27;;;4.43;;
17604;SDS011;8921;50.964;6.800;2022-10-31T15:09:57;11.87;;;4.60;;
17604;SDS011;8921;50.964;6.800;2022-10-31T15:14:57;14.20;;;4.70;;
17604;SDS011;8921;50.964;6.800;2022-10-31T15:17:26;10.83;;;5.00;;
17604;SDS011;8921;50.964;6.800;2022-10-31T15:19:54;13.10;;;5.07;;
17604;SDS011;8921;50.964;6.800;2022-10-31T15:22:22;12.33;;;4.73;;
17604;SDS011;8921;50.964;6.800;2022-10-31T15:24:50;10.33;;;4.10;;
17604;SDS011;8921;50.964;6.800;2022-10-31T15:27:19;8.07;;;4.37;;
17604;SDS011;8921;50.964;6.800;2022-10-31T15:29:51;16.10;;;5.10;;
17604;SDS011;8921;50.964;6.800;2022-10-31T15:34:46;11.07;;;5.07;;
17604;SDS011;8921;50.964;6.800;2022-10-31T15:37:16;10.63;;;5.07;;
17604;SDS011;8921;50.964;6.800;2022-10-31T15:39:43;10.20;;;4.17;;
17604;SDS011;8921;50.964;6.800;2022-10-31T15:42:22;16.20;;;5.20;;
17604;SDS011;8921;50.964;6.800;2022-10-31T15:44:59;12.70;;;5.00;;
17604;SDS011;8921;50.964;6.800;2022-10-31T15:47:20;18.03;;;4.43;;
17604;SDS011;8921;50.964;6.800;2022-10-31T15:55:27;15.27;;;4.90;;
17604;SDS011;8921;50.964;6.800;2022-10-31T15:57:40;13.70;;;4.90;;
17604;SDS011;8921;50.964;6.800;2022-10-31T16:00:27;14.10;;;7.63;;
17604;SDS011;8921;50.964;6.800;2022-10-31T16:05:38;12.90;;;5.40;;
17604;SDS011;8921;50.964;6.800;2022-10-31T16:08:21;12.40;;;5.43;;
17604;SDS011;8921;50.964;6.800;2022-10-31T16:10:34;13.93;;;6.17;;
17604;SDS011;8921;50.964;6.800;2022-10-31T16:13:06;16.13;;;4.80;;
17604;SDS011;8921;50.964;6.800;2022-10-31T16:15:33;13.17;;;5.43;;
17604;SDS011;8921;50.964;6.800;2022-10-31T16:18:01;13.07;;;4.73;;
17604;SDS011;8921;50.964;6.800;2022-10-31T16:20:35;13.83;;;5.00;;
17604;SDS011;8921;50.964;6.800;2022-10-31T16:22:58;13.17;;;4.87;;
17604;SDS011;8921;50.964;6.800;2022-10-31T16:25:33;11.33;;;5.07;;
17604;SDS011;8921;50.964;6.800;2022-10-31T16:28:00;10.77;;;5.20;;
17604;SDS011;8921;50.964;6.800;2022-10-31T16:30:36;15.87;;;5.10;;
17604;SDS011;8921;50.964;6.800;2022-10-31T16:33:23;13.10;;;4.63;;
17604;SDS011;8921;50.964;6.800;2022-10-31T16:35:56;8.90;;;4.40;;
17604;SDS011;8921;50.964;6.800;2022-10-31T16:38:24;15.70;;;5.73;;
17604;SDS011;8921;50.964;6.800;2022-10-31T16:40:52;8.83;;;4.90;;
17604;SDS011;8921;50.964;6.800;2022-10-31T16:43:20;26.30;;;6.30;;
17604;SDS011;8921;50.964;6.800;2022-10-31T16:45:50;12.90;;;5.67;;
17604;SDS011;8921;50.964;6.800;2022-10-31T16:48:20;18.53;;;5.23;;
17604;SDS011;8921;50.964;6.800;2022-10-31T16:50:49;10.80;;;5.80;;
17604;SDS011;8921;50.964;6.800;2022-10-31T16:53:16;10.70;;;4.60;;
17604;SDS011;8921;50.964;6.800;2022-10-31T16:55:50;10.77;;;5.30;;
17604;SDS011;8921;50.964;6.800;2022-10-31T16:58:17;12.13;;;5.00;;
17604;SDS011;8921;50.964;6.800;2022-10-31T17:00:44;12.00;;;4.60;;
17604;SDS011;8921;50.964;6.800;2022-10-31T17:03:12;10.37;;;4.50;;
17604;SDS011;8921;50.964;6.800;2022-10-31T17:05:41;9.93;;;4.87;;
17604;SDS011;8921;50.964;6.800;2022-10-31T17:08:09;8.47;;;5.10;;
17604;SDS011;8921;50.964;6.800;2022-10-31T17:10:38;12.37;;;5.50;;
17604;SDS011;8921;50.964;6.800;2022-10-31T17:13:06;10.23;;;4.60;;
17604;SDS011;8921;50.964;6.800;2022-10-31T17:15:38;10.27;;;4.90;;
17604;SDS011;8921;50.964;6.800;2022-10-31T17:18:05;14.50;;;4.93;;
17604;SDS011;8921;50.964;6.800;2022-10-31T17:20:34;12.53;;;4.77;;